sensor_id;sensor_type;location;lat;lon;timestamp;P1;durP1;ratioP1;P2;durP2;ratioP2
3726;SDS011;1879;45.876;12.300;2022-07-10T00:00:29;5.13;;;3.30;;
3726;SDS011;1879;45.876;12.300;2022-07-10T00:02:56;2.97;;;2.50;;
3726;SDS011;1879;45.876;12.300;2022-07-10T00:05:25;2.90;;;2.70;;
3726;SDS011;1879;45.876;12.300;2022-07-10T00:07:52;3.30;;;3.10;;
3726;SDS011;1879;45.876;12.300;2022-07-10T00:10:20;3.40;;;3.10;;
3726;SDS011;1879;45.876;12.300;2022-07-10T00:12:48;8.00;;;2.93;;
3726;SDS011;1879;45.876;12.300;2022-07-10T00:15:17;3.27;;;2.90;;
3726;SDS011;1879;45.876;12.300;2022-07-10T00:17:45;4.40;;;3.07;;
3726;SDS011;1879;45.876;12.300;2022-07-10T00:20:13;3.03;;;2.73;;
3726;SDS011;1879;45.876;12.300;2022-07-10T00:22:40;7.10;;;2.90;;
3726;SDS011;1879;45.876;12.300;2022-07-10T00:25:12;3.13;;;2.70;;
3726;SDS011;1879;45.876;12.300;2022-07-10T00:27:41;3.27;;;2.97;;
3726;SDS011;1879;45.876;12.300;2022-07-10T00:30:08;3.43;;;2.80;;
3726;SDS011;1879;45.876;12.300;2022-07-10T00:32:36;3.37;;;3.17;;
3726;SDS011;1879;45.876;12.300;2022-07-10T00:35:04;3.63;;;2.80;;
3726;SDS011;1879;45.876;12.300;2022-07-10T00:37:32;4.53;;;2.90;;
3726;SDS011;1879;45.876;12.300;2022-07-10T00:39:59;4.57;;;3.23;;
3726;SDS011;1879;45.876;12.300;2022-07-10T00:42:26;3.50;;;3.20;;
3726;SDS011;1879;45.876;12.300;2022-07-10T00:44:55;3.37;;;3.00;;
3726;SDS011;1879;45.876;12.300;2022-07-10T00:47:22;3.30;;;3.00;;
3726;SDS011;1879;45.876;12.300;2022-07-10T00:49:49;3.17;;;2.73;;
3726;SDS011;1879;45.876;12.300;2022-07-10T00:52:17;3.13;;;2.83;;
3726;SDS011;1879;45.876;12.300;2022-07-10T00:54:45;3.70;;;2.73;;
3726;SDS011;1879;45.876;12.300;2022-07-10T00:57:16;3.07;;;2.77;;
3726;SDS011;1879;45.876;12.300;2022-07-10T00:59:43;3.53;;;3.00;;
3726;SDS011;1879;45.876;12.300;2022-07-10T01:02:14;3.87;;;2.87;;
3726;SDS011;1879;45.876;12.300;2022-07-10T01:04:43;3.30;;;2.80;;
3726;SDS011;1879;45.876;12.300;2022-07-10T01:07:10;4.10;;;3.10;;
3726;SDS011;1879;45.876;12.300;2022-07-10T01:09:40;3.50;;;3.20;;
3726;SDS011;1879;45.876;12.300;2022-07-10T01:12:08;3.60;;;2.90;;
3726;SDS011;1879;45.876;12.300;2022-07-10T01:14:37;3.60;;;3.30;;
3726;SDS011;1879;45.876;12.300;2022-07-10T01:17:05;3.27;;;2.97;;
3726;SDS011;1879;45.876;12.300;2022-07-10T01:19:35;4.10;;;3.70;;
3726;SDS011;1879;45.876;12.300;2022-07-10T01:22:04;3.90;;;3.60;;
3726;SDS011;1879;45.876;12.300;2022-07-10T01:24:31;3.60;;;3.20;;
3726;SDS011;1879;45.876;12.300;2022-07-10T01:26:58;3.60;;;3.30;;
3726;SDS011;1879;45.876;12.300;2022-07-10T01:29:25;4.70;;;3.33;;
3726;SDS011;1879;45.876;12.300;2022-07-10T01:31:53;3.13;;;2.63;;
3726;SDS011;1879;45.876;12.300;2022-07-10T01:34:43;3.93;;;3.50;;
3726;SDS011;1879;45.876;12.300;2022-07-10T01:37:13;5.30;;;3.10;;
3726;SDS011;1879;45.876;12.300;2022-07-10T01:39:40;3.60;;;3.30;;
3726;SDS011;1879;45.876;12.300;2022-07-10T01:42:07;3.70;;;3.20;;
3726;SDS011;1879;45.876;12.300;2022-07-10T01:44:34;3.60;;;3.30;;
3726;SDS011;1879;45.876;12.300;2022-07-10T01:47:01;4.07;;;3.20;;
3726;SDS011;1879;45.876;12.300;2022-07-10T01:49:28;4.10;;;3.60;;
3726;SDS011;1879;45.876;12.300;2022-07-10T01:51:56;3.23;;;2.93;;
3726;SDS011;1879;45.876;12.300;2022-07-10T01:54:25;3.83;;;3.53;;
3726;SDS011;1879;45.876;12.300;2022-07-10T01:56:52;5.23;;;3.50;;
3726;SDS011;1879;45.876;12.300;2022-07-10T01:59:19;7.27;;;3.20;;
3726;SDS011;1879;45.876;12.300;2022-07-10T02:01:46;3.67;;;3.30;;
3726;SDS011;1879;45.876;12.300;2022-07-10T02:04:13;3.97;;;3.43;;
3726;SDS011;1879;45.876;12.300;2022-07-10T02:06:57;3.67;;;3.03;;
3726;SDS011;1879;45.876;12.300;2022-07-10T02:09:25;3.90;;;3.20;;
3726;SDS011;1879;45.876;12.300;2022-07-10T02:11:52;3.20;;;2.90;;
3726;SDS011;1879;45.876;12.300;2022-07-10T02:14:19;3.37;;;3.07;;
3726;SDS011;1879;45.876;12.300;2022-07-10T02:16:46;6.40;;;3.17;;
3726;SDS011;1879;45.876;12.300;2022-07-10T02:19:13;3.00;;;2.70;;
3726;SDS011;1879;45.876;12.300;2022-07-10T02:21:40;2.67;;;2.47;;
3726;SDS011;1879;45.876;12.300;2022-07-10T02:24:07;3.90;;;3.17;;
3726;SDS011;1879;45.876;12.300;2022-07-10T02:26:35;4.03;;;3.17;;
3726;SDS011;1879;45.876;12.300;2022-07-10T02:29:02;4.30;;;2.80;;
3726;SDS011;1879;45.876;12.300;2022-07-10T02:31:30;5.80;;;3.03;;
3726;SDS011;1879;45.876;12.300;2022-07-10T02:33:59;3.10;;;2.80;;
3726;SDS011;1879;45.876;12.300;2022-07-10T02:36:26;4.17;;;3.30;;
3726;SDS011;1879;45.876;12.300;2022-07-10T02:38:53;3.53;;;3.20;;
3726;SDS011;1879;45.876;12.300;2022-07-10T02:41:20;3.40;;;3.10;;
3726;SDS011;1879;45.876;12.300;2022-07-10T02:43:48;3.33;;;3.03;;
3726;SDS011;1879;45.876;12.300;2022-07-10T02:46:16;2.73;;;2.53;;
3726;SDS011;1879;45.876;12.300;2022-07-10T02:48:43;3.00;;;2.80;;
3726;SDS011;1879;45.876;12.300;2022-07-10T02:51:09;3.30;;;2.70;;
3726;SDS011;1879;45.876;12.300;2022-07-10T02:53:36;4.53;;;2.80;;
3726;SDS011;1879;45.876;12.300;2022-07-10T02:56:04;3.40;;;3.10;;
3726;SDS011;1879;45.876;12.300;2022-07-10T02:58:31;3.10;;;2.80;;
3726;SDS011;1879;45.876;12.300;2022-07-10T03:01:00;3.10;;;2.70;;
3726;SDS011;1879;45.876;12.300;2022-07-10T03:03:27;6.90;;;2.80;;
3726;SDS011;1879;45.876;12.300;2022-07-10T03:05:54;3.77;;;3.47;;
3726;SDS011;1879;45.876;12.300;2022-07-10T03:08:21;4.50;;;2.67;;
3726;SDS011;1879;45.876;12.300;2022-07-10T03:10:48;3.40;;;3.10;;
3726;SDS011;1879;45.876;12.300;2022-07-10T03:13:15;3.17;;;2.90;;
3726;SDS011;1879;45.876;12.300;2022-07-10T03:15:42;4.10;;;3.00;;
3726;SDS011;1879;45.876;12.300;2022-07-10T03:18:10;7.03;;;3.20;;
3726;SDS011;1879;45.876;12.300;2022-07-10T03:20:37;2.90;;;2.67;;
3726;SDS011;1879;45.876;12.300;2022-07-10T03:23:04;3.30;;;3.00;;
3726;SDS011;1879;45.876;12.300;2022-07-10T03:25:31;3.43;;;3.13;;
3726;SDS011;1879;45.876;12.300;2022-07-10T03:27:58;3.63;;;3.33;;
3726;SDS011;1879;45.876;12.300;2022-07-10T03:30:27;3.67;;;3.37;;
3726;SDS011;1879;45.876;12.300;2022-07-10T03:32:54;3.00;;;2.60;;
3726;SDS011;1879;45.876;12.300;2022-07-10T03:35:23;3.53;;;3.23;;
3726;SDS011;1879;45.876;12.300;2022-07-10T03:37:52;3.30;;;3.00;;
3726;SDS011;1879;45.876;12.300;2022-07-10T03:40:19;4.93;;;2.80;;
3726;SDS011;1879;45.876;12.300;2022-07-10T03:42:46;3.60;;;3.30;;
3726;SDS011;1879;45.876;12.300;2022-07-10T03:45:13;2.83;;;2.63;;
3726;SDS011;1879;45.876;12.300;2022-07-10T03:47:40;4.87;;;2.80;;
3726;SDS011;1879;45.876;12.300;2022-07-10T03:50:07;3.30;;;3.00;;
3726;SDS011;1879;45.876;12.300;2022-07-10T03:52:36;3.07;;;2.87;;
3726;SDS011;1879;45.876;12.300;2022-07-10T03:55:03;3.50;;;3.20;;
3726;SDS011;1879;45.876;12.300;2022-07-10T03:57:31;3.80;;;3.50;;
3726;SDS011;1879;45.876;12.300;2022-07-10T04:00:15;3.13;;;2.83;;
3726;SDS011;1879;45.876;12.300;2022-07-10T04:02:42;3.50;;;3.10;;
3726;SDS011;1879;45.876;12.300;2022-07-10T04:05:10;4.73;;;3.30;;
3726;SDS011;1879;45.876;12.300;2022-07-10T04:07:38;4.90;;;3.60;;
3726;SDS011;1879;45.876;12.300;2022-07-10T04:10:06;3.90;;;3.00;;
3726;SDS011;1879;45.876;12.300;2022-07-10T04:12:34;3.77;;;3.13;;
3726;SDS011;1879;45.876;12.300;2022-07-10T04:15:01;4.10;;;3.30;;
3726;SDS011;1879;45.876;12.300;2022-07-10T04:17:28;3.70;;;3.40;;
3726;SDS011;1879;45.876;12.300;2022-07-10T04:19:57;4.43;;;3.50;;
3726;SDS011;1879;45.876;12.300;2022-07-10T04:22:24;4.67;;;3.57;;
3726;SDS011;1879;45.876;12.300;2022-07-10T04:24:53;3.53;;;3.23;;
3726;SDS011;1879;45.876;12.300;2022-07-10T04:27:20;4.37;;;3.27;;
3726;SDS011;1879;45.876;12.300;2022-07-10T04:29:48;6.63;;;3.20;;
3726;SDS011;1879;45.876;12.300;2022-07-10T04:32:15;5.07;;;3.47;;
3726;SDS011;1879;45.876;12.300;2022-07-10T04:34:42;3.30;;;3.00;;
3726;SDS011;1879;45.876;12.300;2022-07-10T04:37:10;3.93;;;3.23;;
3726;SDS011;1879;45.876;12.300;2022-07-10T04:39:37;4.50;;;3.57;;
3726;SDS011;1879;45.876;12.300;2022-07-10T04:42:06;3.10;;;2.90;;
3726;SDS011;1879;45.876;12.300;2022-07-10T04:44:33;4.10;;;3.70;;
3726;SDS011;1879;45.876;12.300;2022-07-10T04:47:01;3.87;;;3.57;;
3726;SDS011;1879;45.876;12.300;2022-07-10T04:49:29;3.30;;;3.10;;
3726;SDS011;1879;45.876;12.300;2022-07-10T04:51:55;3.27;;;2.97;;
3726;SDS011;1879;45.876;12.300;2022-07-10T04:54:22;5.40;;;3.50;;
3726;SDS011;1879;45.876;12.300;2022-07-10T04:56:50;5.07;;;3.60;;
3726;SDS011;1879;45.876;12.300;2022-07-10T04:59:18;3.90;;;3.57;;
3726;SDS011;1879;45.876;12.300;2022-07-10T05:01:46;3.60;;;3.30;;
3726;SDS011;1879;45.876;12.300;2022-07-10T05:04:13;4.67;;;3.33;;
3726;SDS011;1879;45.876;12.300;2022-07-10T05:06:40;4.00;;;3.60;;
3726;SDS011;1879;45.876;12.300;2022-07-10T05:09:06;3.10;;;2.80;;
3726;SDS011;1879;45.876;12.300;2022-07-10T05:11:33;3.87;;;3.57;;
3726;SDS011;1879;45.876;12.300;2022-07-10T05:14:00;2.97;;;2.67;;
3726;SDS011;1879;45.876;12.300;2022-07-10T05:16:29;3.40;;;2.83;;
3726;SDS011;1879;45.876;12.300;2022-07-10T05:18:56;3.30;;;3.00;;
3726;SDS011;1879;45.876;12.300;2022-07-10T05:21:23;3.47;;;2.80;;
3726;SDS011;1879;45.876;12.300;2022-07-10T05:23:50;9.13;;;3.43;;
3726;SDS011;1879;45.876;12.300;2022-07-10T05:26:18;7.50;;;3.13;;
3726;SDS011;1879;45.876;12.300;2022-07-10T05:28:45;3.73;;;3.13;;
3726;SDS011;1879;45.876;12.300;2022-07-10T05:31:12;4.30;;;3.60;;
3726;SDS011;1879;45.876;12.300;2022-07-10T05:33:40;3.20;;;2.90;;
3726;SDS011;1879;45.876;12.300;2022-07-10T05:36:08;3.50;;;3.03;;
3726;SDS011;1879;45.876;12.300;2022-07-10T05:38:35;3.70;;;3.10;;
3726;SDS011;1879;45.876;12.300;2022-07-10T05:41:02;3.27;;;2.97;;
3726;SDS011;1879;45.876;12.300;2022-07-10T05:43:29;2.97;;;2.67;;
3726;SDS011;1879;45.876;12.300;2022-07-10T05:45:56;3.10;;;2.77;;
3726;SDS011;1879;45.876;12.300;2022-07-10T05:48:23;3.20;;;2.90;;
3726;SDS011;1879;45.876;12.300;2022-07-10T05:50:52;3.90;;;2.90;;
3726;SDS011;1879;45.876;12.300;2022-07-10T05:53:19;2.60;;;2.40;;
3726;SDS011;1879;45.876;12.300;2022-07-10T05:55:46;2.90;;;2.70;;
3726;SDS011;1879;45.876;12.300;2022-07-10T05:58:13;5.30;;;2.60;;
3726;SDS011;1879;45.876;12.300;2022-07-10T06:00:40;5.40;;;2.70;;
3726;SDS011;1879;45.876;12.300;2022-07-10T06:03:09;3.93;;;3.00;;
3726;SDS011;1879;45.876;12.300;2022-07-10T06:05:36;2.73;;;2.53;;
3726;SDS011;1879;45.876;12.300;2022-07-10T06:08:05;3.10;;;2.77;;
3726;SDS011;1879;45.876;12.300;2022-07-10T06:10:32;3.10;;;2.57;;
3726;SDS011;1879;45.876;12.300;2022-07-10T06:12:59;4.60;;;2.63;;
3726;SDS011;1879;45.876;12.300;2022-07-10T06:15:26;2.43;;;2.23;;
3726;SDS011;1879;45.876;12.300;2022-07-10T06:17:55;3.30;;;2.60;;
3726;SDS011;1879;45.876;12.300;2022-07-10T06:20:23;2.90;;;2.60;;
3726;SDS011;1879;45.876;12.300;2022-07-10T06:22:50;2.47;;;2.20;;
3726;SDS011;1879;45.876;12.300;2022-07-10T06:25:18;3.70;;;2.63;;
3726;SDS011;1879;45.876;12.300;2022-07-10T06:27:46;3.97;;;2.70;;
3726;SDS011;1879;45.876;12.300;2022-07-10T06:30:13;5.27;;;3.00;;
3726;SDS011;1879;45.876;12.300;2022-07-10T06:32:40;4.73;;;3.27;;
3726;SDS011;1879;45.876;12.300;2022-07-10T06:35:07;3.03;;;2.63;;
3726;SDS011;1879;45.876;12.300;2022-07-10T06:37:35;2.73;;;2.47;;
3726;SDS011;1879;45.876;12.300;2022-07-10T06:40:02;4.23;;;2.67;;
3726;SDS011;1879;45.876;12.300;2022-07-10T06:42:31;3.00;;;2.70;;
3726;SDS011;1879;45.876;12.300;2022-07-10T06:44:58;3.47;;;2.77;;
3726;SDS011;1879;45.876;12.300;2022-07-10T06:47:25;3.20;;;2.87;;
3726;SDS011;1879;45.876;12.300;2022-07-10T06:50:09;2.90;;;2.70;;
3726;SDS011;1879;45.876;12.300;2022-07-10T06:52:36;3.80;;;2.73;;
3726;SDS011;1879;45.876;12.300;2022-07-10T06:55:04;3.20;;;2.53;;
3726;SDS011;1879;45.876;12.300;2022-07-10T06:57:33;3.27;;;2.40;;
3726;SDS011;1879;45.876;12.300;2022-07-10T07:00:00;3.97;;;3.20;;
3726;SDS011;1879;45.876;12.300;2022-07-10T07:02:28;3.37;;;2.80;;
3726;SDS011;1879;45.876;12.300;2022-07-10T07:04:55;3.73;;;3.10;;
3726;SDS011;1879;45.876;12.300;2022-07-10T07:07:22;3.40;;;3.10;;
3726;SDS011;1879;45.876;12.300;2022-07-10T07:09:49;3.00;;;2.80;;
3726;SDS011;1879;45.876;12.300;2022-07-10T07:12:16;5.03;;;2.90;;
3726;SDS011;1879;45.876;12.300;2022-07-10T07:14:45;3.90;;;3.40;;
3726;SDS011;1879;45.876;12.300;2022-07-10T07:17:12;3.40;;;3.10;;
3726;SDS011;1879;45.876;12.300;2022-07-10T07:19:46;3.10;;;2.73;;
3726;SDS011;1879;45.876;12.300;2022-07-10T07:22:30;3.77;;;3.47;;
3726;SDS011;1879;45.876;12.300;2022-07-10T07:25:14;3.60;;;3.30;;
3726;SDS011;1879;45.876;12.300;2022-07-10T07:27:41;3.83;;;3.50;;
3726;SDS011;1879;45.876;12.300;2022-07-10T07:30:11;2.90;;;2.70;;
3726;SDS011;1879;45.876;12.300;2022-07-10T07:32:40;3.50;;;3.20;;
3726;SDS011;1879;45.876;12.300;2022-07-10T07:35:08;4.77;;;3.40;;
3726;SDS011;1879;45.876;12.300;2022-07-10T07:37:36;3.40;;;3.10;;
3726;SDS011;1879;45.876;12.300;2022-07-10T07:40:04;3.30;;;2.60;;
3726;SDS011;1879;45.876;12.300;2022-07-10T07:42:33;3.10;;;2.80;;
3726;SDS011;1879;45.876;12.300;2022-07-10T07:45:00;3.83;;;2.50;;
3726;SDS011;1879;45.876;12.300;2022-07-10T07:47:28;3.80;;;2.80;;
3726;SDS011;1879;45.876;12.300;2022-07-10T07:49:56;3.03;;;2.50;;
3726;SDS011;1879;45.876;12.300;2022-07-10T07:52:23;2.67;;;2.47;;
3726;SDS011;1879;45.876;12.300;2022-07-10T07:54:50;3.00;;;2.80;;
3726;SDS011;1879;45.876;12.300;2022-07-10T07:57:17;3.20;;;2.90;;
3726;SDS011;1879;45.876;12.300;2022-07-10T07:59:44;2.70;;;2.50;;
3726;SDS011;1879;45.876;12.300;2022-07-10T08:02:11;3.57;;;2.67;;
3726;SDS011;1879;45.876;12.300;2022-07-10T08:04:39;4.80;;;2.67;;
3726;SDS011;1879;45.876;12.300;2022-07-10T08:07:06;4.33;;;2.50;;
3726;SDS011;1879;45.876;12.300;2022-07-10T08:09:33;4.13;;;2.93;;
3726;SDS011;1879;45.876;12.300;2022-07-10T08:12:01;2.73;;;2.40;;
3726;SDS011;1879;45.876;12.300;2022-07-10T08:14:28;4.93;;;2.77;;
3726;SDS011;1879;45.876;12.300;2022-07-10T08:16:55;2.60;;;2.40;;
3726;SDS011;1879;45.876;12.300;2022-07-10T08:19:22;2.63;;;2.33;;
3726;SDS011;1879;45.876;12.300;2022-07-10T08:21:50;5.23;;;2.60;;
3726;SDS011;1879;45.876;12.300;2022-07-10T08:24:17;2.90;;;2.33;;
3726;SDS011;1879;45.876;12.300;2022-07-10T08:26:44;3.03;;;2.47;;
3726;SDS011;1879;45.876;12.300;2022-07-10T08:29:11;3.13;;;2.80;;
3726;SDS011;1879;45.876;12.300;2022-07-10T08:31:38;2.80;;;2.60;;
3726;SDS011;1879;45.876;12.300;2022-07-10T08:34:05;2.90;;;2.60;;
3726;SDS011;1879;45.876;12.300;2022-07-10T08:36:35;3.00;;;2.70;;
3726;SDS011;1879;45.876;12.300;2022-07-10T08:39:04;3.20;;;2.30;;
3726;SDS011;1879;45.876;12.300;2022-07-10T08:41:31;2.63;;;2.43;;
3726;SDS011;1879;45.876;12.300;2022-07-10T08:43:59;4.80;;;2.57;;
3726;SDS011;1879;45.876;12.300;2022-07-10T08:46:27;4.13;;;2.80;;
3726;SDS011;1879;45.876;12.300;2022-07-10T08:48:54;3.80;;;2.60;;
3726;SDS011;1879;45.876;12.300;2022-07-10T08:51:30;2.80;;;2.50;;
3726;SDS011;1879;45.876;12.300;2022-07-10T08:54:05;3.03;;;2.67;;
3726;SDS011;1879;45.876;12.300;2022-07-10T08:56:32;3.17;;;2.83;;
3726;SDS011;1879;45.876;12.300;2022-07-10T08:59:01;2.97;;;2.20;;
3726;SDS011;1879;45.876;12.300;2022-07-10T09:01:30;3.70;;;3.13;;
3726;SDS011;1879;45.876;12.300;2022-07-10T09:03:57;3.20;;;2.37;;
3726;SDS011;1879;45.876;12.300;2022-07-10T09:06:24;5.80;;;2.70;;
3726;SDS011;1879;45.876;12.300;2022-07-10T09:09:00;3.00;;;2.37;;
3726;SDS011;1879;45.876;12.300;2022-07-10T09:11:33;3.20;;;2.40;;
3726;SDS011;1879;45.876;12.300;2022-07-10T09:14:02;2.80;;;2.13;;
3726;SDS011;1879;45.876;12.300;2022-07-10T09:16:33;3.00;;;2.40;;
3726;SDS011;1879;45.876;12.300;2022-07-10T09:19:14;8.30;;;2.50;;
3726;SDS011;1879;45.876;12.300;2022-07-10T09:21:43;3.87;;;2.43;;
3726;SDS011;1879;45.876;12.300;2022-07-10T09:24:11;3.57;;;2.37;;
3726;SDS011;1879;45.876;12.300;2022-07-10T09:26:40;12.53;;;6.20;;
3726;SDS011;1879;45.876;12.300;2022-07-10T09:29:09;8.20;;;4.37;;
3726;SDS011;1879;45.876;12.300;2022-07-10T09:31:49;4.10;;;3.03;;
3726;SDS011;1879;45.876;12.300;2022-07-10T09:34:17;8.00;;;5.33;;
3726;SDS011;1879;45.876;12.300;2022-07-10T09:36:44;4.63;;;3.03;;
3726;SDS011;1879;45.876;12.300;2022-07-10T09:39:13;34.70;;;13.80;;
3726;SDS011;1879;45.876;12.300;2022-07-10T09:41:40;17.73;;;7.10;;
3726;SDS011;1879;45.876;12.300;2022-07-10T09:44:07;21.97;;;7.63;;
3726;SDS011;1879;45.876;12.300;2022-07-10T09:46:35;19.93;;;7.90;;
3726;SDS011;1879;45.876;12.300;2022-07-10T09:49:07;7.60;;;3.40;;
3726;SDS011;1879;45.876;12.300;2022-07-10T09:51:37;2.30;;;2.00;;
3726;SDS011;1879;45.876;12.300;2022-07-10T09:54:08;9.80;;;2.50;;
3726;SDS011;1879;45.876;12.300;2022-07-10T09:56:40;2.43;;;2.20;;
3726;SDS011;1879;45.876;12.300;2022-07-10T09:59:09;2.33;;;2.13;;
3726;SDS011;1879;45.876;12.300;2022-07-10T10:01:37;2.60;;;2.40;;
3726;SDS011;1879;45.876;12.300;2022-07-10T10:04:10;3.77;;;1.90;;
3726;SDS011;1879;45.876;12.300;2022-07-10T10:06:38;2.43;;;2.10;;
3726;SDS011;1879;45.876;12.300;2022-07-10T10:09:07;2.73;;;2.00;;
3726;SDS011;1879;45.876;12.300;2022-07-10T10:11:40;2.27;;;1.90;;
3726;SDS011;1879;45.876;12.300;2022-07-10T10:14:10;2.53;;;1.70;;
3726;SDS011;1879;45.876;12.300;2022-07-10T10:16:40;2.30;;;2.10;;
3726;SDS011;1879;45.876;12.300;2022-07-10T10:19:12;1.93;;;1.80;;
3726;SDS011;1879;45.876;12.300;2022-07-10T10:21:59;2.00;;;1.70;;
3726;SDS011;1879;45.876;12.300;2022-07-10T10:24:27;2.37;;;1.73;;
3726;SDS011;1879;45.876;12.300;2022-07-10T10:26:59;1.80;;;1.70;;
3726;SDS011;1879;45.876;12.300;2022-07-10T10:29:27;1.93;;;1.73;;
3726;SDS011;1879;45.876;12.300;2022-07-10T10:31:54;3.60;;;1.80;;
3726;SDS011;1879;45.876;12.300;2022-07-10T10:34:37;2.43;;;1.90;;
3726;SDS011;1879;45.876;12.300;2022-07-10T10:37:05;1.87;;;1.73;;
3726;SDS011;1879;45.876;12.300;2022-07-10T10:42:34;3.13;;;2.13;;
3726;SDS011;1879;45.876;12.300;2022-07-10T10:45:23;1.60;;;1.30;;
3726;SDS011;1879;45.876;12.300;2022-07-10T10:48:02;4.13;;;2.50;;
3726;SDS011;1879;45.876;12.300;2022-07-10T10:50:37;3.30;;;1.57;;
3726;SDS011;1879;45.876;12.300;2022-07-10T10:53:05;3.90;;;1.60;;
3726;SDS011;1879;45.876;12.300;2022-07-10T10:55:40;2.20;;;2.00;;
3726;SDS011;1879;45.876;12.300;2022-07-10T10:58:18;6.37;;;2.40;;
3726;SDS011;1879;45.876;12.300;2022-07-10T11:00:49;2.80;;;2.60;;
3726;SDS011;1879;45.876;12.300;2022-07-10T11:03:17;6.63;;;3.17;;
3726;SDS011;1879;45.876;12.300;2022-07-10T11:05:47;4.00;;;2.80;;
3726;SDS011;1879;45.876;12.300;2022-07-10T11:08:34;4.57;;;2.80;;
3726;SDS011;1879;45.876;12.300;2022-07-10T11:14:06;2.60;;;2.30;;
3726;SDS011;1879;45.876;12.300;2022-07-10T11:16:34;7.03;;;2.03;;
3726;SDS011;1879;45.876;12.300;2022-07-10T11:19:03;2.30;;;1.90;;
3726;SDS011;1879;45.876;12.300;2022-07-10T11:21:38;2.67;;;1.90;;
3726;SDS011;1879;45.876;12.300;2022-07-10T11:24:15;2.30;;;2.07;;
3726;SDS011;1879;45.876;12.300;2022-07-10T11:27:04;4.10;;;1.67;;
3726;SDS011;1879;45.876;12.300;2022-07-10T11:29:43;3.53;;;1.67;;
3726;SDS011;1879;45.876;12.300;2022-07-10T11:32:14;1.63;;;1.53;;
3726;SDS011;1879;45.876;12.300;2022-07-10T11:34:42;2.00;;;1.57;;
3726;SDS011;1879;45.876;12.300;2022-07-10T11:37:13;1.50;;;1.40;;
3726;SDS011;1879;45.876;12.300;2022-07-10T11:39:41;1.60;;;1.50;;
3726;SDS011;1879;45.876;12.300;2022-07-10T11:42:08;3.00;;;1.50;;
3726;SDS011;1879;45.876;12.300;2022-07-10T11:44:35;1.70;;;1.40;;
3726;SDS011;1879;45.876;12.300;2022-07-10T11:47:04;2.40;;;1.70;;
3726;SDS011;1879;45.876;12.300;2022-07-10T11:49:32;1.57;;;1.47;;
3726;SDS011;1879;45.876;12.300;2022-07-10T11:52:01;1.93;;;1.53;;
3726;SDS011;1879;45.876;12.300;2022-07-10T11:54:29;3.07;;;1.70;;
3726;SDS011;1879;45.876;12.300;2022-07-10T11:57:04;1.50;;;1.40;;
3726;SDS011;1879;45.876;12.300;2022-07-10T11:59:32;2.70;;;1.30;;
3726;SDS011;1879;45.876;12.300;2022-07-10T12:01:59;1.50;;;1.40;;
3726;SDS011;1879;45.876;12.300;2022-07-10T12:04:28;1.50;;;1.37;;
3726;SDS011;1879;45.876;12.300;2022-07-10T12:06:56;2.60;;;1.60;;
3726;SDS011;1879;45.876;12.300;2022-07-10T12:09:24;1.97;;;1.73;;
3726;SDS011;1879;45.876;12.300;2022-07-10T12:11:57;2.07;;;1.67;;
3726;SDS011;1879;45.876;12.300;2022-07-10T12:14:26;1.37;;;1.27;;
3726;SDS011;1879;45.876;12.300;2022-07-10T12:16:53;1.60;;;1.50;;
3726;SDS011;1879;45.876;12.300;2022-07-10T12:19:23;1.60;;;1.50;;
3726;SDS011;1879;45.876;12.300;2022-07-10T12:21:54;1.60;;;1.30;;
3726;SDS011;1879;45.876;12.300;2022-07-10T12:24:21;2.07;;;1.50;;
3726;SDS011;1879;45.876;12.300;2022-07-10T12:26:49;1.50;;;1.40;;
3726;SDS011;1879;45.876;12.300;2022-07-10T12:29:20;1.40;;;1.30;;
3726;SDS011;1879;45.876;12.300;2022-07-10T12:31:49;2.60;;;1.50;;
3726;SDS011;1879;45.876;12.300;2022-07-10T12:34:17;1.60;;;1.50;;
3726;SDS011;1879;45.876;12.300;2022-07-10T12:36:45;1.60;;;1.50;;
3726;SDS011;1879;45.876;12.300;2022-07-10T12:39:15;1.27;;;1.17;;
3726;SDS011;1879;45.876;12.300;2022-07-10T12:41:54;1.50;;;1.40;;
3726;SDS011;1879;45.876;12.300;2022-07-10T12:44:32;2.20;;;1.57;;
3726;SDS011;1879;45.876;12.300;2022-07-10T12:47:03;2.53;;;1.87;;
3726;SDS011;1879;45.876;12.300;2022-07-10T12:49:55;1.80;;;1.20;;
3726;SDS011;1879;45.876;12.300;2022-07-10T12:52:24;3.37;;;1.90;;
3726;SDS011;1879;45.876;12.300;2022-07-10T12:55:09;1.83;;;1.70;;
3726;SDS011;1879;45.876;12.300;2022-07-10T12:57:49;3.23;;;1.60;;
3726;SDS011;1879;45.876;12.300;2022-07-10T13:00:19;3.07;;;1.83;;
3726;SDS011;1879;45.876;12.300;2022-07-10T13:02:47;1.70;;;1.60;;
3726;SDS011;1879;45.876;12.300;2022-07-10T13:05:27;2.13;;;1.80;;
3726;SDS011;1879;45.876;12.300;2022-07-10T13:08:05;2.63;;;1.90;;
3726;SDS011;1879;45.876;12.300;2022-07-10T13:10:37;1.70;;;1.60;;
3726;SDS011;1879;45.876;12.300;2022-07-10T13:13:05;1.87;;;1.70;;
3726;SDS011;1879;45.876;12.300;2022-07-10T13:15:32;1.90;;;1.77;;
3726;SDS011;1879;45.876;12.300;2022-07-10T13:18:04;2.60;;;2.40;;
3726;SDS011;1879;45.876;12.300;2022-07-10T13:20:32;2.60;;;2.40;;
3726;SDS011;1879;45.876;12.300;2022-07-10T13:22:59;4.03;;;3.23;;
3726;SDS011;1879;45.876;12.300;2022-07-10T13:25:26;5.00;;;2.90;;
3726;SDS011;1879;45.876;12.300;2022-07-10T13:27:55;2.90;;;2.67;;
3726;SDS011;1879;45.876;12.300;2022-07-10T13:30:22;2.50;;;2.30;;
3726;SDS011;1879;45.876;12.300;2022-07-10T13:32:49;3.10;;;2.80;;
3726;SDS011;1879;45.876;12.300;2022-07-10T13:35:16;3.07;;;2.33;;
3726;SDS011;1879;45.876;12.300;2022-07-10T13:37:43;3.10;;;2.80;;
3726;SDS011;1879;45.876;12.300;2022-07-10T13:40:11;2.80;;;2.60;;
3726;SDS011;1879;45.876;12.300;2022-07-10T13:42:38;4.70;;;2.10;;
3726;SDS011;1879;45.876;12.300;2022-07-10T13:45:08;3.20;;;2.83;;
3726;SDS011;1879;45.876;12.300;2022-07-10T13:47:35;2.73;;;2.53;;
3726;SDS011;1879;45.876;12.300;2022-07-10T13:50:03;3.27;;;2.53;;
3726;SDS011;1879;45.876;12.300;2022-07-10T13:52:31;2.43;;;2.23;;
3726;SDS011;1879;45.876;12.300;2022-07-10T13:54:58;2.90;;;2.57;;
3726;SDS011;1879;45.876;12.300;2022-07-10T13:57:26;2.70;;;2.50;;
3726;SDS011;1879;45.876;12.300;2022-07-10T13:59:53;2.67;;;2.47;;
3726;SDS011;1879;45.876;12.300;2022-07-10T14:02:21;3.10;;;2.53;;
3726;SDS011;1879;45.876;12.300;2022-07-10T14:04:48;2.60;;;1.87;;
3726;SDS011;1879;45.876;12.300;2022-07-10T14:07:15;2.70;;;1.90;;
3726;SDS011;1879;45.876;12.300;2022-07-10T14:09:42;2.47;;;2.27;;
3726;SDS011;1879;45.876;12.300;2022-07-10T14:12:10;2.10;;;2.00;;
3726;SDS011;1879;45.876;12.300;2022-07-10T14:14:37;2.63;;;2.43;;
3726;SDS011;1879;45.876;12.300;2022-07-10T14:17:04;3.73;;;2.23;;
3726;SDS011;1879;45.876;12.300;2022-07-10T14:19:33;2.73;;;2.47;;
3726;SDS011;1879;45.876;12.300;2022-07-10T14:22:00;2.77;;;2.10;;
3726;SDS011;1879;45.876;12.300;2022-07-10T14:24:27;2.40;;;2.20;;
3726;SDS011;1879;45.876;12.300;2022-07-10T14:26:54;2.47;;;2.20;;
3726;SDS011;1879;45.876;12.300;2022-07-10T14:29:24;2.20;;;1.90;;
3726;SDS011;1879;45.876;12.300;2022-07-10T14:31:51;2.83;;;1.87;;
3726;SDS011;1879;45.876;12.300;2022-07-10T14:34:18;4.00;;;1.83;;
3726;SDS011;1879;45.876;12.300;2022-07-10T14:36:50;2.27;;;2.07;;
3726;SDS011;1879;45.876;12.300;2022-07-10T14:39:17;2.87;;;1.90;;
3726;SDS011;1879;45.876;12.300;2022-07-10T14:41:44;3.37;;;2.27;;
3726;SDS011;1879;45.876;12.300;2022-07-10T14:44:11;2.27;;;1.70;;
3726;SDS011;1879;45.876;12.300;2022-07-10T14:46:38;1.83;;;1.67;;
3726;SDS011;1879;45.876;12.300;2022-07-10T14:49:05;1.70;;;1.60;;
3726;SDS011;1879;45.876;12.300;2022-07-10T14:51:32;1.80;;;1.70;;
3726;SDS011;1879;45.876;12.300;2022-07-10T14:54:02;2.00;;;1.80;;
3726;SDS011;1879;45.876;12.300;2022-07-10T14:56:29;1.73;;;1.63;;
3726;SDS011;1879;45.876;12.300;2022-07-10T14:58:56;2.90;;;1.90;;
3726;SDS011;1879;45.876;12.300;2022-07-10T15:01:23;2.33;;;1.60;;
3726;SDS011;1879;45.876;12.300;2022-07-10T15:03:50;2.57;;;1.60;;
3726;SDS011;1879;45.876;12.300;2022-07-10T15:06:18;1.77;;;1.63;;
3726;SDS011;1879;45.876;12.300;2022-07-10T15:08:45;1.87;;;1.40;;
3726;SDS011;1879;45.876;12.300;2022-07-10T15:11:17;2.10;;;1.30;;
3726;SDS011;1879;45.876;12.300;2022-07-10T15:13:46;1.50;;;1.40;;
3726;SDS011;1879;45.876;12.300;2022-07-10T15:16:14;1.70;;;1.33;;